sensor_id;sensor_type;location;lat;lon;timestamp;temperature;humidity
37658;DHT22;23500;53.268;8.308;2024-02-26T00:02:18;16.00;80.00
37658;DHT22;23500;53.268;8.308;2024-02-26T00:04:44;16.00;80.00
37658;DHT22;23500;53.268;8.308;2024-02-26T00:07:09;16.00;80.00
37658;DHT22;23500;53.268;8.308;2024-02-26T00:09:35;16.00;80.10
37658;DHT22;23500;53.268;8.308;2024-02-26T00:12:03;16.00;80.10
37658;DHT22;23500;53.268;8.308;2024-02-26T00:14:30;16.00;80.20
37658;DHT22;23500;53.268;8.308;2024-02-26T00:16:55;16.00;80.10
37658;DHT22;23500;53.268;8.308;2024-02-26T00:19:21;16.00;80.10
37658;DHT22;23500;53.268;8.308;2024-02-26T00:21:47;16.00;80.10
37658;DHT22;23500;53.268;8.308;2024-02-26T00:24:12;16.00;80.20
37658;DHT22;23500;53.268;8.308;2024-02-26T00:26:39;16.00;80.20
37658;DHT22;23500;53.268;8.308;2024-02-26T00:29:04;16.00;80.20
37658;DHT22;23500;53.268;8.308;2024-02-26T00:31:30;16.00;80.10
37658;DHT22;23500;53.268;8.308;2024-02-26T00:33:56;15.90;80.10
37658;DHT22;23500;53.268;8.308;2024-02-26T00:36:22;15.90;80.10
37658;DHT22;23500;53.268;8.308;2024-02-26T00:38:47;15.90;80.10
37658;DHT22;23500;53.268;8.308;2024-02-26T00:41:20;15.90;80.10
37658;DHT22;23500;53.268;8.308;2024-02-26T00:43:46;15.90;80.20
37658;DHT22;23500;53.268;8.308;2024-02-26T00:46:12;15.90;80.20
37658;DHT22;23500;53.268;8.308;2024-02-26T00:48:38;15.90;80.20
37658;DHT22;23500;53.268;8.308;2024-02-26T00:51:04;15.90;80.20
37658;DHT22;23500;53.268;8.308;2024-02-26T00:53:34;15.90;80.20
37658;DHT22;23500;53.268;8.308;2024-02-26T00:56:00;15.90;80.10
37658;DHT22;23500;53.268;8.308;2024-02-26T00:58:26;15.90;80.30
37658;DHT22;23500;53.268;8.308;2024-02-26T01:00:52;15.90;80.20
37658;DHT22;23500;53.268;8.308;2024-02-26T01:03:18;15.90;80.20
37658;DHT22;23500;53.268;8.308;2024-02-26T01:05:44;15.90;80.20
37658;DHT22;23500;53.268;8.308;2024-02-26T01:08:09;15.90;80.20
37658;DHT22;23500;53.268;8.308;2024-02-26T01:10:35;15.90;80.20
37658;DHT22;23500;53.268;8.308;2024-02-26T01:13:01;15.90;80.20
37658;DHT22;23500;53.268;8.308;2024-02-26T01:15:27;15.90;80.20
37658;DHT22;23500;53.268;8.308;2024-02-26T01:17:53;15.90;80.30
37658;DHT22;23500;53.268;8.308;2024-02-26T01:20:20;15.90;80.20
37658;DHT22;23500;53.268;8.308;2024-02-26T01:22:46;15.90;80.20
37658;DHT22;23500;53.268;8.308;2024-02-26T01:25:12;15.90;80.30
37658;DHT22;23500;53.268;8.308;2024-02-26T01:27:38;15.90;80.20
37658;DHT22;23500;53.268;8.308;2024-02-26T01:30:07;15.90;80.20
37658;DHT22;23500;53.268;8.308;2024-02-26T01:32:33;15.90;80.20
37658;DHT22;23500;53.268;8.308;2024-02-26T01:34:58;15.90;80.30
37658;DHT22;23500;53.268;8.308;2024-02-26T01:37:24;15.90;80.30
37658;DHT22;23500;53.268;8.308;2024-02-26T01:39:50;15.90;80.30
37658;DHT22;23500;53.268;8.308;2024-02-26T01:42:15;15.90;80.30
37658;DHT22;23500;53.268;8.308;2024-02-26T01:44:41;15.90;80.30
37658;DHT22;23500;53.268;8.308;2024-02-26T01:47:11;15.80;80.30
37658;DHT22;23500;53.268;8.308;2024-02-26T01:49:37;15.80;80.30
37658;DHT22;23500;53.268;8.308;2024-02-26T01:52:05;15.80;80.20
37658;DHT22;23500;53.268;8.308;2024-02-26T01:54:33;15.80;80.30
37658;DHT22;23500;53.268;8.308;2024-02-26T01:56:59;15.80;80.40
37658;DHT22;23500;53.268;8.308;2024-02-26T01:59:26;15.80;80.40
37658;DHT22;23500;53.268;8.308;2024-02-26T02:01:55;15.80;80.30
37658;DHT22;23500;53.268;8.308;2024-02-26T02:04:24;15.80;80.30
37658;DHT22;23500;53.268;8.308;2024-02-26T02:06:50;15.80;80.40
37658;DHT22;23500;53.268;8.308;2024-02-26T02:09:18;15.80;80.40
37658;DHT22;23500;53.268;8.308;2024-02-26T02:11:43;15.80;80.40
37658;DHT22;23500;53.268;8.308;2024-02-26T02:14:10;15.80;80.40
37658;DHT22;23500;53.268;8.308;2024-02-26T02:16:36;15.80;80.40
37658;DHT22;23500;53.268;8.308;2024-02-26T02:19:01;15.80;80.40
37658;DHT22;23500;53.268;8.308;2024-02-26T02:21:27;15.80;80.40
37658;DHT22;23500;53.268;8.308;2024-02-26T02:23:53;15.80;80.40
37658;DHT22;23500;53.268;8.308;2024-02-26T02:26:18;15.80;80.50
37658;DHT22;23500;53.268;8.308;2024-02-26T02:28:45;15.80;80.40
37658;DHT22;23500;53.268;8.308;2024-02-26T02:31:11;15.80;80.40
37658;DHT22;23500;53.268;8.308;2024-02-26T02:33:37;15.80;80.30
37658;DHT22;23500;53.268;8.308;2024-02-26T02:36:03;15.80;80.40
37658;DHT22;23500;53.268;8.308;2024-02-26T02:38:29;15.80;80.40
37658;DHT22;23500;53.268;8.308;2024-02-26T02:40:56;15.80;80.40
37658;DHT22;23500;53.268;8.308;2024-02-26T02:43:21;15.80;80.40
37658;DHT22;23500;53.268;8.308;2024-02-26T02:45:47;15.80;80.40
37658;DHT22;23500;53.268;8.308;2024-02-26T02:48:13;15.80;80.40
37658;DHT22;23500;53.268;8.308;2024-02-26T02:50:38;15.80;80.40
37658;DHT22;23500;53.268;8.308;2024-02-26T02:53:04;15.80;80.40
37658;DHT22;23500;53.268;8.308;2024-02-26T02:55:30;15.80;80.40
37658;DHT22;23500;53.268;8.308;2024-02-26T02:57:56;15.70;80.40
37658;DHT22;23500;53.268;8.308;2024-02-26T03:00:21;15.70;80.40
37658;DHT22;23500;53.268;8.308;2024-02-26T03:02:49;15.70;80.50
37658;DHT22;23500;53.268;8.308;2024-02-26T03:05:15;15.70;80.40
37658;DHT22;23500;53.268;8.308;2024-02-26T03:07:41;15.70;80.40
37658;DHT22;23500;53.268;8.308;2024-02-26T03:10:07;15.70;80.40
37658;DHT22;23500;53.268;8.308;2024-02-26T03:12:33;15.70;80.50
37658;DHT22;23500;53.268;8.308;2024-02-26T03:14:59;15.70;80.50
37658;DHT22;23500;53.268;8.308;2024-02-26T03:17:28;15.70;80.40
37658;DHT22;23500;53.268;8.308;2024-02-26T03:19:54;15.70;80.50
37658;DHT22;23500;53.268;8.308;2024-02-26T03:22:20;15.70;80.50
37658;DHT22;23500;53.268;8.308;2024-02-26T03:24:47;15.70;80.50
37658;DHT22;23500;53.268;8.308;2024-02-26T03:27:13;15.70;80.50
37658;DHT22;23500;53.268;8.308;2024-02-26T03:29:39;15.70;80.50
37658;DHT22;23500;53.268;8.308;2024-02-26T03:32:05;15.70;80.50
37658;DHT22;23500;53.268;8.308;2024-02-26T03:34:32;15.70;80.50
37658;DHT22;23500;53.268;8.308;2024-02-26T03:37:00;15.70;80.50
37658;DHT22;23500;53.268;8.308;2024-02-26T03:39:26;15.70;80.50
37658;DHT22;23500;53.268;8.308;2024-02-26T03:41:51;15.70;80.50
37658;DHT22;23500;53.268;8.308;2024-02-26T03:44:17;15.70;80.60
37658;DHT22;23500;53.268;8.308;2024-02-26T03:46:43;15.70;80.50
37658;DHT22;23500;53.268;8.308;2024-02-26T03:49:09;15.70;80.50
37658;DHT22;23500;53.268;8.308;2024-02-26T03:51:34;15.70;80.60
37658;DHT22;23500;53.268;8.308;2024-02-26T03:54:01;15.70;80.60
37658;DHT22;23500;53.268;8.308;2024-02-26T03:56:27;15.70;80.70
37658;DHT22;23500;53.268;8.308;2024-02-26T03:58:53;15.70;80.70
37658;DHT22;23500;53.268;8.308;2024-02-26T04:01:18;15.70;80.70
37658;DHT22;23500;53.268;8.308;2024-02-26T04:03:45;15.70;80.70
37658;DHT22;23500;53.268;8.308;2024-02-26T04:06:11;15.70;80.80
37658;DHT22;23500;53.268;8.308;2024-02-26T04:08:40;15.70;80.70
37658;DHT22;23500;53.268;8.308;2024-02-26T04:11:06;15.70;80.70
37658;DHT22;23500;53.268;8.308;2024-02-26T04:13:36;15.60;80.70
37658;DHT22;23500;53.268;8.308;2024-02-26T04:16:04;15.60;80.80
37658;DHT22;23500;53.268;8.308;2024-02-26T04:18:31;15.70;80.80
37658;DHT22;23500;53.268;8.308;2024-02-26T04:20:57;15.70;80.80
37658;DHT22;23500;53.268;8.308;2024-02-26T04:23:23;15.60;80.80
37658;DHT22;23500;53.268;8.308;2024-02-26T04:25:48;15.60;80.80
37658;DHT22;23500;53.268;8.308;2024-02-26T04:28:14;15.60;80.70
37658;DHT22;23500;53.268;8.308;2024-02-26T04:30:40;15.60;80.70
37658;DHT22;23500;53.268;8.308;2024-02-26T04:33:06;15.60;80.70
37658;DHT22;23500;53.268;8.308;2024-02-26T04:35:32;15.60;80.80
37658;DHT22;23500;53.268;8.308;2024-02-26T04:37:58;15.60;80.70
37658;DHT22;23500;53.268;8.308;2024-02-26T04:40:23;15.60;81.30
37658;DHT22;23500;53.268;8.308;2024-02-26T04:42:49;15.60;80.70
37658;DHT22;23500;53.268;8.308;2024-02-26T04:45:15;15.60;80.70
37658;DHT22;23500;53.268;8.308;2024-02-26T04:47:41;15.60;80.70
37658;DHT22;23500;53.268;8.308;2024-02-26T04:50:07;15.60;80.70
37658;DHT22;23500;53.268;8.308;2024-02-26T04:52:33;15.60;80.70
37658;DHT22;23500;53.268;8.308;2024-02-26T04:54:59;15.60;80.80
37658;DHT22;23500;53.268;8.308;2024-02-26T04:57:25;15.60;80.70
37658;DHT22;23500;53.268;8.308;2024-02-26T04:59:51;15.60;80.60
37658;DHT22;23500;53.268;8.308;2024-02-26T05:02:17;15.60;80.70
37658;DHT22;23500;53.268;8.308;2024-02-26T05:04:43;15.60;80.70
37658;DHT22;23500;53.268;8.308;2024-02-26T05:07:09;15.60;80.70
37658;DHT22;23500;53.268;8.308;2024-02-26T05:09:35;15.60;80.70
37658;DHT22;23500;53.268;8.308;2024-02-26T05:12:01;15.60;80.80
37658;DHT22;23500;53.268;8.308;2024-02-26T05:14:27;15.60;80.90
37658;DHT22;23500;53.268;8.308;2024-02-26T05:16:52;15.60;80.80
37658;DHT22;23500;53.268;8.308;2024-02-26T05:19:18;15.60;80.90
37658;DHT22;23500;53.268;8.308;2024-02-26T05:21:44;15.50;80.70
37658;DHT22;23500;53.268;8.308;2024-02-26T05:24:10;15.50;80.90
37658;DHT22;23500;53.268;8.308;2024-02-26T05:26:36;15.50;80.90
37658;DHT22;23500;53.268;8.308;2024-02-26T05:29:02;15.50;80.90
37658;DHT22;23500;53.268;8.308;2024-02-26T05:31:28;15.50;80.90
37658;DHT22;23500;53.268;8.308;2024-02-26T05:33:54;15.50;80.90
37658;DHT22;23500;53.268;8.308;2024-02-26T05:36:23;15.50;80.90
37658;DHT22;23500;53.268;8.308;2024-02-26T05:38:49;15.50;81.00
37658;DHT22;23500;53.268;8.308;2024-02-26T05:41:18;15.50;81.00
37658;DHT22;23500;53.268;8.308;2024-02-26T05:43:49;15.60;81.10
37658;DHT22;23500;53.268;8.308;2024-02-26T05:46:17;15.50;81.00
37658;DHT22;23500;53.268;8.308;2024-02-26T05:48:44;15.50;81.00
37658;DHT22;23500;53.268;8.308;2024-02-26T05:51:10;15.50;81.00
37658;DHT22;23500;53.268;8.308;2024-02-26T05:53:35;15.50;81.00
37658;DHT22;23500;53.268;8.308;2024-02-26T05:56:01;15.50;81.10
37658;DHT22;23500;53.268;8.308;2024-02-26T05:58:27;15.50;81.70
37658;DHT22;23500;53.268;8.308;2024-02-26T06:00:52;15.50;80.90
37658;DHT22;23500;53.268;8.308;2024-02-26T06:03:18;15.50;81.00
37658;DHT22;23500;53.268;8.308;2024-02-26T06:05:43;15.50;81.10
37658;DHT22;23500;53.268;8.308;2024-02-26T06:08:09;15.50;81.10
37658;DHT22;23500;53.268;8.308;2024-02-26T06:10:35;15.50;81.10
37658;DHT22;23500;53.268;8.308;2024-02-26T06:13:00;15.50;81.00
37658;DHT22;23500;53.268;8.308;2024-02-26T06:15:26;15.50;81.00
37658;DHT22;23500;53.268;8.308;2024-02-26T06:17:52;15.50;81.00
37658;DHT22;23500;53.268;8.308;2024-02-26T06:20:17;15.50;81.00
37658;DHT22;23500;53.268;8.308;2024-02-26T06:22:43;15.50;81.00
37658;DHT22;23500;53.268;8.308;2024-02-26T06:25:10;15.50;80.90
37658;DHT22;23500;53.268;8.308;2024-02-26T06:27:36;15.50;80.90
37658;DHT22;23500;53.268;8.308;2024-02-26T06:30:01;15.50;81.00
37658;DHT22;23500;53.268;8.308;2024-02-26T06:32:27;15.50;80.90
37658;DHT22;23500;53.268;8.308;2024-02-26T06:34:56;15.50;81.00
37658;DHT22;23500;53.268;8.308;2024-02-26T06:37:22;15.50;80.90
37658;DHT22;23500;53.268;8.308;2024-02-26T06:39:48;15.50;81.00
37658;DHT22;23500;53.268;8.308;2024-02-26T06:42:13;15.50;81.00
37658;DHT22;23500;53.268;8.308;2024-02-26T06:44:39;15.50;81.00
37658;DHT22;23500;53.268;8.308;2024-02-26T06:47:05;15.50;81.00
37658;DHT22;23500;53.268;8.308;2024-02-26T06:49:31;15.50;81.10
37658;DHT22;23500;53.268;8.308;2024-02-26T06:51:57;15.50;80.90
37658;DHT22;23500;53.268;8.308;2024-02-26T06:54:22;15.50;80.80
37658;DHT22;23500;53.268;8.308;2024-02-26T06:56:48;15.50;80.90
37658;DHT22;23500;53.268;8.308;2024-02-26T06:59:14;15.50;81.00
37658;DHT22;23500;53.268;8.308;2024-02-26T07:01:41;15.50;81.00
37658;DHT22;23500;53.268;8.308;2024-02-26T07:04:07;15.50;80.80
37658;DHT22;23500;53.268;8.308;2024-02-26T07:06:33;15.60;80.60
37658;DHT22;23500;53.268;8.308;2024-02-26T07:08:58;15.50;80.30
37658;DHT22;23500;53.268;8.308;2024-02-26T07:11:24;15.60;80.40
37658;DHT22;23500;53.268;8.308;2024-02-26T07:13:50;15.60;80.30
37658;DHT22;23500;53.268;8.308;2024-02-26T07:16:15;15.60;80.40
37658;DHT22;23500;53.268;8.308;2024-02-26T07:18:41;15.60;80.40
37658;DHT22;23500;53.268;8.308;2024-02-26T07:21:08;15.60;80.30
37658;DHT22;23500;53.268;8.308;2024-02-26T07:23:35;15.60;80.40
37658;DHT22;23500;53.268;8.308;2024-02-26T07:26:01;15.60;80.40
37658;DHT22;23500;53.268;8.308;2024-02-26T07:28:27;15.60;80.40
37658;DHT22;23500;53.268;8.308;2024-02-26T07:30:52;15.60;80.40
37658;DHT22;23500;53.268;8.308;2024-02-26T07:33:18;15.60;80.40
37658;DHT22;23500;53.268;8.308;2024-02-26T07:35:44;15.60;80.40
37658;DHT22;23500;53.268;8.308;2024-02-26T07:38:09;15.60;80.40
37658;DHT22;23500;53.268;8.308;2024-02-26T07:40:35;15.60;80.40
37658;DHT22;23500;53.268;8.308;2024-02-26T07:43:01;15.60;80.40
37658;DHT22;23500;53.268;8.308;2024-02-26T07:45:27;15.60;80.30
37658;DHT22;23500;53.268;8.308;2024-02-26T07:47:53;15.60;80.30
37658;DHT22;23500;53.268;8.308;2024-02-26T07:50:18;15.60;80.20
37658;DHT22;23500;53.268;8.308;2024-02-26T07:52:45;15.60;80.20
37658;DHT22;23500;53.268;8.308;2024-02-26T07:55:11;15.60;80.30
37658;DHT22;23500;53.268;8.308;2024-02-26T07:57:36;15.60;80.20
37658;DHT22;23500;53.268;8.308;2024-02-26T08:00:03;15.60;80.20
37658;DHT22;23500;53.268;8.308;2024-02-26T08:02:29;15.60;80.10
37658;DHT22;23500;53.268;8.308;2024-02-26T08:04:55;15.60;80.20
37658;DHT22;23500;53.268;8.308;2024-02-26T08:07:20;15.60;80.20
37658;DHT22;23500;53.268;8.308;2024-02-26T08:09:47;15.60;80.10
37658;DHT22;23500;53.268;8.308;2024-02-26T08:12:13;15.60;79.90
37658;DHT22;23500;53.268;8.308;2024-02-26T08:14:38;15.60;80.00
37658;DHT22;23500;53.268;8.308;2024-02-26T08:17:04;15.60;80.10
37658;DHT22;23500;53.268;8.308;2024-02-26T08:19:30;15.70;80.10
37658;DHT22;23500;53.268;8.308;2024-02-26T08:21:56;15.60;80.00
37658;DHT22;23500;53.268;8.308;2024-02-26T08:24:22;15.70;80.00
37658;DHT22;23500;53.268;8.308;2024-02-26T08:26:48;15.60;79.80
37658;DHT22;23500;53.268;8.308;2024-02-26T08:29:14;15.70;80.00
37658;DHT22;23500;53.268;8.308;2024-02-26T08:31:39;15.60;80.00
37658;DHT22;23500;53.268;8.308;2024-02-26T08:34:05;15.70;79.90
37658;DHT22;23500;53.268;8.308;2024-02-26T08:36:33;15.70;79.90
37658;DHT22;23500;53.268;8.308;2024-02-26T08:38:59;15.60;79.90
37658;DHT22;23500;53.268;8.308;2024-02-26T08:41:24;15.70;79.90
37658;DHT22;23500;53.268;8.308;2024-02-26T08:43:50;15.60;80.80
37658;DHT22;23500;53.268;8.308;2024-02-26T08:46:16;15.60;80.30
37658;DHT22;23500;53.268;8.308;2024-02-26T08:48:42;15.70;80.50
37658;DHT22;23500;53.268;8.308;2024-02-26T08:51:08;15.70;80.50
37658;DHT22;23500;53.268;8.308;2024-02-26T08:53:37;15.70;80.40
37658;DHT22;23500;53.268;8.308;2024-02-26T08:56:04;15.80;80.40
37658;DHT22;23500;53.268;8.308;2024-02-26T08:58:29;15.80;80.30
37658;DHT22;23500;53.268;8.308;2024-02-26T09:00:55;15.80;80.30
37658;DHT22;23500;53.268;8.308;2024-02-26T09:03:21;15.80;80.10
37658;DHT22;23500;53.268;8.308;2024-02-26T09:05:47;15.90;80.10
37658;DHT22;23500;53.268;8.308;2024-02-26T09:08:13;15.90;80.00
37658;DHT22;23500;53.268;8.308;2024-02-26T09:10:39;15.90;79.80
37658;DHT22;23500;53.268;8.308;2024-02-26T09:13:05;15.90;79.80
37658;DHT22;23500;53.268;8.308;2024-02-26T09:15:30;16.00;79.70
37658;DHT22;23500;53.268;8.308;2024-02-26T09:17:56;16.00;79.60
37658;DHT22;23500;53.268;8.308;2024-02-26T09:20:22;16.00;79.60
37658;DHT22;23500;53.268;8.308;2024-02-26T09:22:49;16.00;79.40
37658;DHT22;23500;53.268;8.308;2024-02-26T09:25:16;16.00;79.40
37658;DHT22;23500;53.268;8.308;2024-02-26T09:27:42;16.00;79.20
37658;DHT22;23500;53.268;8.308;2024-02-26T09:30:12;16.00;79.00
37658;DHT22;23500;53.268;8.308;2024-02-26T09:32:38;16.10;79.20
37658;DHT22;23500;53.268;8.308;2024-02-26T09:35:05;16.10;79.20
37658;DHT22;23500;53.268;8.308;2024-02-26T09:37:31;16.10;79.00
37658;DHT22;23500;53.268;8.308;2024-02-26T09:39:57;16.10;79.00
37658;DHT22;23500;53.268;8.308;2024-02-26T09:42:25;16.10;78.90
37658;DHT22;23500;53.268;8.308;2024-02-26T09:44:54;16.20;78.90
37658;DHT22;23500;53.268;8.308;2024-02-26T09:47:23;16.20;78.90
37658;DHT22;23500;53.268;8.308;2024-02-26T09:49:52;16.20;78.70
37658;DHT22;23500;53.268;8.308;2024-02-26T09:52:19;16.20;78.80
37658;DHT22;23500;53.268;8.308;2024-02-26T09:54:48;16.20;78.60
37658;DHT22;23500;53.268;8.308;2024-02-26T09:57:16;16.20;78.70
37658;DHT22;23500;53.268;8.308;2024-02-26T09:59:43;16.20;78.60
37658;DHT22;23500;53.268;8.308;2024-02-26T10:02:12;16.30;78.50
37658;DHT22;23500;53.268;8.308;2024-02-26T10:04:39;16.30;78.60
37658;DHT22;23500;53.268;8.308;2024-02-26T10:07:10;16.30;78.30
37658;DHT22;23500;53.268;8.308;2024-02-26T10:09:37;16.30;78.40
37658;DHT22;23500;53.268;8.308;2024-02-26T10:12:04;16.30;78.40
37658;DHT22;23500;53.268;8.308;2024-02-26T10:14:30;16.30;78.40
37658;DHT22;23500;53.268;8.308;2024-02-26T10:16:56;16.40;78.00
37658;DHT22;23500;53.268;8.308;2024-02-26T10:19:29;16.40;78.10
37658;DHT22;23500;53.268;8.308;2024-02-26T10:21:59;16.40;78.00
37658;DHT22;23500;53.268;8.308;2024-02-26T10:24:26;16.40;77.90
37658;DHT22;23500;53.268;8.308;2024-02-26T10:26:54;16.40;77.90
37658;DHT22;23500;53.268;8.308;2024-02-26T10:29:20;16.40;77.80
37658;DHT22;23500;53.268;8.308;2024-02-26T10:31:46;16.50;77.80
37658;DHT22;23500;53.268;8.308;2024-02-26T10:34:12;16.50;77.80
37658;DHT22;23500;53.268;8.308;2024-02-26T10:36:38;16.50;77.80
37658;DHT22;23500;53.268;8.308;2024-02-26T10:39:07;16.50;77.90
37658;DHT22;23500;53.268;8.308;2024-02-26T10:41:33;16.50;77.80
37658;DHT22;23500;53.268;8.308;2024-02-26T10:43:59;16.50;77.50
37658;DHT22;23500;53.268;8.308;2024-02-26T10:46:25;16.50;77.60
37658;DHT22;23500;53.268;8.308;2024-02-26T10:48:52;16.50;77.70
37658;DHT22;23500;53.268;8.308;2024-02-26T10:51:23;16.50;77.60
37658;DHT22;23500;53.268;8.308;2024-02-26T10:53:55;16.50;77.60
37658;DHT22;23500;53.268;8.308;2024-02-26T10:56:25;16.50;77.60
37658;DHT22;23500;53.268;8.308;2024-02-26T10:58:53;16.60;77.70
37658;DHT22;23500;53.268;8.308;2024-02-26T11:01:20;16.60;77.60
37658;DHT22;23500;53.268;8.308;2024-02-26T11:03:51;16.60;77.60
37658;DHT22;23500;53.268;8.308;2024-02-26T11:06:24;16.60;77.50
37658;DHT22;23500;53.268;8.308;2024-02-26T11:08:51;16.60;77.50
37658;DHT22;23500;53.268;8.308;2024-02-26T11:11:18;16.60;77.70
37658;DHT22;23500;53.268;8.308;2024-02-26T11:13:48;16.60;77.80
37658;DHT22;23500;53.268;8.308;2024-02-26T11:16:21;16.60;77.50
37658;DHT22;23500;53.268;8.308;2024-02-26T11:18:48;16.60;77.40
37658;DHT22;23500;53.268;8.308;2024-02-26T11:21:17;16.60;77.20
37658;DHT22;23500;53.268;8.308;2024-02-26T11:23:45;16.60;77.10
37658;DHT22;23500;53.268;8.308;2024-02-26T11:26:11;16.60;77.20
37658;DHT22;23500;53.268;8.308;2024-02-26T11:28:39;16.50;77.20
37658;DHT22;23500;53.268;8.308;2024-02-26T11:31:05;16.50;77.20
37658;DHT22;23500;53.268;8.308;2024-02-26T11:33:33;16.50;77.30
37658;DHT22;23500;53.268;8.308;2024-02-26T11:36:02;16.50;77.30
37658;DHT22;23500;53.268;8.308;2024-02-26T11:38:28;16.50;77.30
37658;DHT22;23500;53.268;8.308;2024-02-26T11:40:54;16.50;77.30
37658;DHT22;23500;53.268;8.308;2024-02-26T11:43:49;16.50;77.50
37658;DHT22;23500;53.268;8.308;2024-02-26T11:46:31;16.50;77.30
37658;DHT22;23500;53.268;8.308;2024-02-26T11:49:03;16.50;77.60
37658;DHT22;23500;53.268;8.308;2024-02-26T11:51:33;16.40;77.70
37658;DHT22;23500;53.268;8.308;2024-02-26T11:54:00;16.50;77.60
37658;DHT22;23500;53.268;8.308;2024-02-26T11:56:26;16.50;77.70
37658;DHT22;23500;53.268;8.308;2024-02-26T11:59:09;16.50;77.60
37658;DHT22;23500;53.268;8.308;2024-02-26T12:01:45;16.50;77.70
37658;DHT22;23500;53.268;8.308;2024-02-26T12:04:24;16.50;77.80
37658;DHT22;23500;53.268;8.308;2024-02-26T12:06:56;16.50;77.40
37658;DHT22;23500;53.268;8.308;2024-02-26T12:11:57;16.60;77.20
37658;DHT22;23500;53.268;8.308;2024-02-26T12:14:25;16.60;76.90
37658;DHT22;23500;53.268;8.308;2024-02-26T12:16:52;16.60;76.70
37658;DHT22;23500;53.268;8.308;2024-02-26T12:19:18;16.60;76.60
37658;DHT22;23500;53.268;8.308;2024-02-26T12:21:44;16.70;76.70
37658;DHT22;23500;53.268;8.308;2024-02-26T12:24:11;16.70;76.40
37658;DHT22;23500;53.268;8.308;2024-02-26T12:26:38;16.70;76.40
37658;DHT22;23500;53.268;8.308;2024-02-26T12:29:04;16.70;76.50
37658;DHT22;23500;53.268;8.308;2024-02-26T12:31:31;16.80;76.40
37658;DHT22;23500;53.268;8.308;2024-02-26T12:33:57;16.80;76.50
37658;DHT22;23500;53.268;8.308;2024-02-26T12:36:23;16.80;76.50
37658;DHT22;23500;53.268;8.308;2024-02-26T12:38:50;16.80;76.50
37658;DHT22;23500;53.268;8.308;2024-02-26T12:41:17;16.80;76.50
37658;DHT22;23500;53.268;8.308;2024-02-26T12:43:42;16.90;76.40
37658;DHT22;23500;53.268;8.308;2024-02-26T12:46:08;16.90;76.50
37658;DHT22;23500;53.268;8.308;2024-02-26T12:48:34;16.90;76.30
37658;DHT22;23500;53.268;8.308;2024-02-26T12:51:00;16.90;76.30
37658;DHT22;23500;53.268;8.308;2024-02-26T12:53:26;17.00;76.30
37658;DHT22;23500;53.268;8.308;2024-02-26T12:55:54;17.00;76.00
37658;DHT22;23500;53.268;8.308;2024-02-26T12:58:21;17.00;76.00
37658;DHT22;23500;53.268;8.308;2024-02-26T13:00:51;17.00;75.90
37658;DHT22;23500;53.268;8.308;2024-02-26T13:03:18;17.10;75.90
37658;DHT22;23500;53.268;8.308;2024-02-26T13:05:45;17.10;75.90
37658;DHT22;23500;53.268;8.308;2024-02-26T13:08:18;17.10;76.00
37658;DHT22;23500;53.268;8.308;2024-02-26T13:10:45;17.10;75.90
37658;DHT22;23500;53.268;8.308;2024-02-26T13:13:11;17.10;75.90
37658;DHT22;23500;53.268;8.308;2024-02-26T13:15:43;17.10;75.90
37658;DHT22;23500;53.268;8.308;2024-02-26T13:18:10;17.10;76.20
37658;DHT22;23500;53.268;8.308;2024-02-26T13:20:36;17.10;76.00
37658;DHT22;23500;53.268;8.308;2024-02-26T13:23:06;17.10;76.20
37658;DHT22;23500;53.268;8.308;2024-02-26T13:25:34;17.10;76.30
37658;DHT22;23500;53.268;8.308;2024-02-26T13:28:16;17.10;76.20
37658;DHT22;23500;53.268;8.308;2024-02-26T13:30:49;17.10;76.40
37658;DHT22;23500;53.268;8.308;2024-02-26T13:33:15;17.10;77.00
37658;DHT22;23500;53.268;8.308;2024-02-26T13:35:41;17.10;76.40
37658;DHT22;23500;53.268;8.308;2024-02-26T13:38:07;17.10;76.50
37658;DHT22;23500;53.268;8.308;2024-02-26T13:40:33;17.10;76.60
37658;DHT22;23500;53.268;8.308;2024-02-26T13:43:00;17.00;76.30
37658;DHT22;23500;53.268;8.308;2024-02-26T13:45:26;17.00;76.20
37658;DHT22;23500;53.268;8.308;2024-02-26T13:47:51;17.00;76.20
37658;DHT22;23500;53.268;8.308;2024-02-26T13:50:17;17.00;76.30
37658;DHT22;23500;53.268;8.308;2024-02-26T13:52:47;17.00;76.10
37658;DHT22;23500;53.268;8.308;2024-02-26T13:55:13;17.00;76.40
37658;DHT22;23500;53.268;8.308;2024-02-26T13:57:40;17.00;76.50
37658;DHT22;23500;53.268;8.308;2024-02-26T14:00:07;16.90;76.20
37658;DHT22;23500;53.268;8.308;2024-02-26T14:02:35;16.90;76.20
37658;DHT22;23500;53.268;8.308;2024-02-26T14:05:02;16.90;76.30
37658;DHT22;23500;53.268;8.308;2024-02-26T14:07:30;16.90;76.40
37658;DHT22;23500;53.268;8.308;2024-02-26T14:09:59;16.90;76.50
37658;DHT22;23500;53.268;8.308;2024-02-26T14:12:25;16.80;76.30
37658;DHT22;23500;53.268;8.308;2024-02-26T14:14:51;16.80;76.50
37658;DHT22;23500;53.268;8.308;2024-02-26T14:17:19;16.80;76.30
37658;DHT22;23500;53.268;8.308;2024-02-26T14:19:45;16.80;76.50
37658;DHT22;23500;53.268;8.308;2024-02-26T14:22:13;16.80;76.50
37658;DHT22;23500;53.268;8.308;2024-02-26T14:24:38;16.70;76.60
37658;DHT22;23500;53.268;8.308;2024-02-26T14:27:06;16.70;76.60
37658;DHT22;23500;53.268;8.308;2024-02-26T14:29:33;16.70;76.50
37658;DHT22;23500;53.268;8.308;2024-02-26T14:31:59;16.70;76.50
37658;DHT22;23500;53.268;8.308;2024-02-26T14:34:24;16.70;76.70
37658;DHT22;23500;53.268;8.308;2024-02-26T14:36:50;16.70;76.70
37658;DHT22;23500;53.268;8.308;2024-02-26T14:39:16;16.70;76.80
37658;DHT22;23500;53.268;8.308;2024-02-26T14:41:41;16.70;76.70
37658;DHT22;23500;53.268;8.308;2024-02-26T14:44:08;16.70;76.70
37658;DHT22;23500;53.268;8.308;2024-02-26T14:46:34;16.70;76.70
37658;DHT22;23500;53.268;8.308;2024-02-26T14:48:59;16.70;76.60
37658;DHT22;23500;53.268;8.308;2024-02-26T14:51:25;16.60;76.60
37658;DHT22;23500;53.268;8.308;2024-02-26T14:53:51;16.60;76.50
37658;DHT22;23500;53.268;8.308;2024-02-26T14:56:17;16.60;76.70
37658;DHT22;23500;53.268;8.308;2024-02-26T14:58:42;16.60;76.50
37658;DHT22;23500;53.268;8.308;2024-02-26T15:01:08;16.60;76.50
37658;DHT22;23500;53.268;8.308;2024-02-26T15:03:34;16.60;76.40
37658;DHT22;23500;53.268;8.308;2024-02-26T15:06:00;16.60;76.30
37658;DHT22;23500;53.268;8.308;2024-02-26T15:08:26;16.60;76.30
37658;DHT22;23500;53.268;8.308;2024-02-26T15:10:51;16.60;76.30
37658;DHT22;23500;53.268;8.308;2024-02-26T15:13:17;16.60;76.30
37658;DHT22;23500;53.268;8.308;2024-02-26T15:15:43;16.60;76.30
37658;DHT22;23500;53.268;8.308;2024-02-26T15:18:09;16.50;76.40
37658;DHT22;23500;53.268;8.308;2024-02-26T15:20:37;16.50;76.40
37658;DHT22;23500;53.268;8.308;2024-02-26T15:23:06;16.50;76.70
37658;DHT22;23500;53.268;8.308;2024-02-26T15:25:32;16.40;76.70
37658;DHT22;23500;53.268;8.308;2024-02-26T15:27:57;16.40;76.80
37658;DHT22;23500;53.268;8.308;2024-02-26T15:30:23;16.40;76.90